sensor_id;sensor_type;location;lat;lon;timestamp;P1;durP1;ratioP1;P2;durP2;ratioP2
85133;SDS011;75590;42.690;23.356;2024-01-16T00:00:36;12.13;;;7.63;;
85133;SDS011;75590;42.690;23.356;2024-01-16T00:03:02;14.90;;;8.55;;
85133;SDS011;75590;42.690;23.356;2024-01-16T00:05:29;13.18;;;7.35;;
85133;SDS011;75590;42.690;23.356;2024-01-16T00:07:54;14.27;;;7.68;;
85133;SDS011;75590;42.690;23.356;2024-01-16T00:10:20;15.90;;;8.73;;
85133;SDS011;75590;42.690;23.356;2024-01-16T00:12:45;14.93;;;7.45;;
85133;SDS011;75590;42.690;23.356;2024-01-16T00:15:11;13.75;;;6.65;;
85133;SDS011;75590;42.690;23.356;2024-01-16T00:17:36;14.85;;;8.60;;
85133;SDS011;75590;42.690;23.356;2024-01-16T00:20:02;13.82;;;8.45;;
85133;SDS011;75590;42.690;23.356;2024-01-16T00:22:30;15.60;;;9.00;;
85133;SDS011;75590;42.690;23.356;2024-01-16T00:24:55;16.92;;;9.00;;
85133;SDS011;75590;42.690;23.356;2024-01-16T00:27:21;16.70;;;9.52;;
85133;SDS011;75590;42.690;23.356;2024-01-16T00:29:46;17.63;;;8.75;;
85133;SDS011;75590;42.690;23.356;2024-01-16T00:32:12;16.83;;;9.60;;
85133;SDS011;75590;42.690;23.356;2024-01-16T00:34:41;15.73;;;9.15;;
85133;SDS011;75590;42.690;23.356;2024-01-16T00:37:07;18.33;;;10.45;;
85133;SDS011;75590;42.690;23.356;2024-01-16T00:39:32;15.65;;;8.90;;
85133;SDS011;75590;42.690;23.356;2024-01-16T00:41:58;15.65;;;9.77;;
85133;SDS011;75590;42.690;23.356;2024-01-16T00:44:24;17.17;;;9.82;;
85133;SDS011;75590;42.690;23.356;2024-01-16T00:46:49;18.52;;;10.57;;
85133;SDS011;75590;42.690;23.356;2024-01-16T00:49:15;17.92;;;10.40;;
85133;SDS011;75590;42.690;23.356;2024-01-16T00:51:40;18.70;;;10.25;;
85133;SDS011;75590;42.690;23.356;2024-01-16T00:54:06;17.30;;;10.50;;
85133;SDS011;75590;42.690;23.356;2024-01-16T00:56:33;18.42;;;10.13;;
85133;SDS011;75590;42.690;23.356;2024-01-16T00:59:00;19.15;;;10.35;;
85133;SDS011;75590;42.690;23.356;2024-01-16T01:01:25;16.60;;;10.40;;
85133;SDS011;75590;42.690;23.356;2024-01-16T01:03:51;18.20;;;10.45;;
85133;SDS011;75590;42.690;23.356;2024-01-16T01:06:17;17.75;;;10.20;;
85133;SDS011;75590;42.690;23.356;2024-01-16T01:08:42;19.77;;;11.13;;
85133;SDS011;75590;42.690;23.356;2024-01-16T01:11:08;15.73;;;10.10;;
85133;SDS011;75590;42.690;23.356;2024-01-16T01:13:33;16.58;;;9.65;;
85133;SDS011;75590;42.690;23.356;2024-01-16T01:15:58;12.48;;;8.50;;
85133;SDS011;75590;42.690;23.356;2024-01-16T01:18:25;13.90;;;8.57;;
85133;SDS011;75590;42.690;23.356;2024-01-16T01:20:50;15.57;;;8.85;;
85133;SDS011;75590;42.690;23.356;2024-01-16T01:23:16;21.23;;;10.95;;
85133;SDS011;75590;42.690;23.356;2024-01-16T01:25:41;14.05;;;9.05;;
85133;SDS011;75590;42.690;23.356;2024-01-16T01:28:07;17.27;;;9.48;;
85133;SDS011;75590;42.690;23.356;2024-01-16T01:30:33;15.30;;;8.55;;
85133;SDS011;75590;42.690;23.356;2024-01-16T01:32:59;14.95;;;8.27;;
85133;SDS011;75590;42.690;23.356;2024-01-16T01:35:24;13.35;;;8.05;;
85133;SDS011;75590;42.690;23.356;2024-01-16T01:37:50;16.02;;;8.43;;
85133;SDS011;75590;42.690;23.356;2024-01-16T01:40:15;15.40;;;9.13;;
85133;SDS011;75590;42.690;23.356;2024-01-16T01:42:41;13.63;;;7.82;;
85133;SDS011;75590;42.690;23.356;2024-01-16T01:45:10;11.93;;;6.68;;
85133;SDS011;75590;42.690;23.356;2024-01-16T01:47:36;14.55;;;7.88;;
85133;SDS011;75590;42.690;23.356;2024-01-16T01:50:03;13.82;;;8.88;;
85133;SDS011;75590;42.690;23.356;2024-01-16T01:52:30;13.73;;;8.25;;
85133;SDS011;75590;42.690;23.356;2024-01-16T01:54:56;14.60;;;8.80;;
85133;SDS011;75590;42.690;23.356;2024-01-16T01:57:21;13.18;;;7.63;;
85133;SDS011;75590;42.690;23.356;2024-01-16T01:59:47;13.35;;;7.65;;
85133;SDS011;75590;42.690;23.356;2024-01-16T02:02:13;12.93;;;7.82;;
85133;SDS011;75590;42.690;23.356;2024-01-16T02:04:39;13.95;;;8.63;;
85133;SDS011;75590;42.690;23.356;2024-01-16T02:07:05;14.00;;;8.52;;
85133;SDS011;75590;42.690;23.356;2024-01-16T02:09:32;14.85;;;8.20;;
85133;SDS011;75590;42.690;23.356;2024-01-16T02:11:58;17.52;;;8.38;;
85133;SDS011;75590;42.690;23.356;2024-01-16T02:14:24;13.82;;;8.13;;
85133;SDS011;75590;42.690;23.356;2024-01-16T02:16:49;13.80;;;7.10;;
85133;SDS011;75590;42.690;23.356;2024-01-16T02:19:15;15.95;;;7.32;;
85133;SDS011;75590;42.690;23.356;2024-01-16T02:24:10;14.32;;;6.43;;
85133;SDS011;75590;42.690;23.356;2024-01-16T02:26:37;15.80;;;8.02;;
85133;SDS011;75590;42.690;23.356;2024-01-16T02:29:03;15.55;;;9.15;;
85133;SDS011;75590;42.690;23.356;2024-01-16T02:31:30;11.82;;;6.57;;
85133;SDS011;75590;42.690;23.356;2024-01-16T02:33:56;16.77;;;10.63;;
85133;SDS011;75590;42.690;23.356;2024-01-16T02:36:21;13.63;;;8.18;;
85133;SDS011;75590;42.690;23.356;2024-01-16T02:38:47;14.10;;;10.55;;
85133;SDS011;75590;42.690;23.356;2024-01-16T02:41:13;19.25;;;10.23;;
85133;SDS011;75590;42.690;23.356;2024-01-16T02:43:41;14.00;;;6.80;;
85133;SDS011;75590;42.690;23.356;2024-01-16T02:46:06;12.95;;;7.43;;
85133;SDS011;75590;42.690;23.356;2024-01-16T02:48:33;16.23;;;9.27;;
85133;SDS011;75590;42.690;23.356;2024-01-16T02:50:59;15.23;;;8.77;;
85133;SDS011;75590;42.690;23.356;2024-01-16T02:53:25;14.65;;;8.88;;
85133;SDS011;75590;42.690;23.356;2024-01-16T02:55:51;18.27;;;9.80;;
85133;SDS011;75590;42.690;23.356;2024-01-16T02:58:18;14.35;;;8.50;;
85133;SDS011;75590;42.690;23.356;2024-01-16T03:00:43;11.25;;;7.95;;
85133;SDS011;75590;42.690;23.356;2024-01-16T03:03:08;13.50;;;8.88;;
85133;SDS011;75590;42.690;23.356;2024-01-16T03:05:35;14.57;;;7.32;;
85133;SDS011;75590;42.690;23.356;2024-01-16T03:08:01;17.52;;;9.57;;
85133;SDS011;75590;42.690;23.356;2024-01-16T03:10:28;12.35;;;8.35;;
85133;SDS011;75590;42.690;23.356;2024-01-16T03:12:53;15.30;;;8.43;;
85133;SDS011;75590;42.690;23.356;2024-01-16T03:15:19;13.95;;;8.65;;
85133;SDS011;75590;42.690;23.356;2024-01-16T03:17:45;9.93;;;6.07;;
85133;SDS011;75590;42.690;23.356;2024-01-16T03:20:11;11.07;;;7.47;;
85133;SDS011;75590;42.690;23.356;2024-01-16T03:22:37;7.80;;;4.40;;
85133;SDS011;75590;42.690;23.356;2024-01-16T03:25:04;7.10;;;4.40;;
85133;SDS011;75590;42.690;23.356;2024-01-16T03:27:31;6.43;;;5.10;;
85133;SDS011;75590;42.690;23.356;2024-01-16T03:29:56;5.10;;;4.28;;
85133;SDS011;75590;42.690;23.356;2024-01-16T03:32:22;5.63;;;4.85;;
85133;SDS011;75590;42.690;23.356;2024-01-16T03:34:47;6.13;;;4.97;;
85133;SDS011;75590;42.690;23.356;2024-01-16T03:37:13;4.72;;;3.92;;
85133;SDS011;75590;42.690;23.356;2024-01-16T03:39:38;6.35;;;4.38;;
85133;SDS011;75590;42.690;23.356;2024-01-16T03:42:04;6.68;;;5.97;;
85133;SDS011;75590;42.690;23.356;2024-01-16T03:44:29;7.05;;;5.13;;
85133;SDS011;75590;42.690;23.356;2024-01-16T03:46:55;6.18;;;4.63;;
85133;SDS011;75590;42.690;23.356;2024-01-16T03:49:20;5.38;;;4.32;;
85133;SDS011;75590;42.690;23.356;2024-01-16T03:51:46;5.85;;;3.95;;
85133;SDS011;75590;42.690;23.356;2024-01-16T03:54:12;4.40;;;4.00;;
85133;SDS011;75590;42.690;23.356;2024-01-16T03:56:40;4.03;;;3.65;;
85133;SDS011;75590;42.690;23.356;2024-01-16T03:59:06;5.28;;;4.25;;
85133;SDS011;75590;42.690;23.356;2024-01-16T04:01:34;3.03;;;2.75;;
85133;SDS011;75590;42.690;23.356;2024-01-16T04:04:03;3.80;;;3.08;;
85133;SDS011;75590;42.690;23.356;2024-01-16T04:06:31;4.63;;;3.65;;
85133;SDS011;75590;42.690;23.356;2024-01-16T04:08:58;4.47;;;4.05;;
85133;SDS011;75590;42.690;23.356;2024-01-16T04:11:23;6.53;;;4.47;;
85133;SDS011;75590;42.690;23.356;2024-01-16T04:13:49;3.13;;;2.83;;
85133;SDS011;75590;42.690;23.356;2024-01-16T04:16:15;4.43;;;4.03;;
85133;SDS011;75590;42.690;23.356;2024-01-16T04:18:42;4.43;;;3.88;;
85133;SDS011;75590;42.690;23.356;2024-01-16T04:21:08;4.05;;;3.65;;
85133;SDS011;75590;42.690;23.356;2024-01-16T04:23:34;3.70;;;3.10;;
85133;SDS011;75590;42.690;23.356;2024-01-16T04:25:59;2.90;;;2.53;;
85133;SDS011;75590;42.690;23.356;2024-01-16T04:28:25;3.63;;;3.33;;
85133;SDS011;75590;42.690;23.356;2024-01-16T04:30:51;3.20;;;3.00;;
85133;SDS011;75590;42.690;23.356;2024-01-16T04:33:17;4.32;;;3.92;;
85133;SDS011;75590;42.690;23.356;2024-01-16T04:35:42;3.20;;;2.95;;
85133;SDS011;75590;42.690;23.356;2024-01-16T04:38:09;4.15;;;2.75;;
85133;SDS011;75590;42.690;23.356;2024-01-16T04:40:34;3.20;;;2.90;;
85133;SDS011;75590;42.690;23.356;2024-01-16T04:43:00;2.53;;;1.83;;
85133;SDS011;75590;42.690;23.356;2024-01-16T04:45:25;3.38;;;3.08;;
85133;SDS011;75590;42.690;23.356;2024-01-16T04:47:51;2.90;;;1.83;;
85133;SDS011;75590;42.690;23.356;2024-01-16T04:50:16;2.00;;;1.80;;
85133;SDS011;75590;42.690;23.356;2024-01-16T04:52:43;2.33;;;2.13;;
85133;SDS011;75590;42.690;23.356;2024-01-16T04:55:08;1.48;;;1.05;;
85133;SDS011;75590;42.690;23.356;2024-01-16T04:57:34;2.53;;;2.33;;
85133;SDS011;75590;42.690;23.356;2024-01-16T04:59:59;2.20;;;2.08;;
85133;SDS011;75590;42.690;23.356;2024-01-16T05:02:25;1.67;;;1.58;;
85133;SDS011;75590;42.690;23.356;2024-01-16T05:04:50;1.42;;;1.20;;
85133;SDS011;75590;42.690;23.356;2024-01-16T05:07:19;2.05;;;1.88;;
85133;SDS011;75590;42.690;23.356;2024-01-16T05:09:46;2.30;;;2.20;;
85133;SDS011;75590;42.690;23.356;2024-01-16T05:12:12;3.05;;;2.85;;
85133;SDS011;75590;42.690;23.356;2024-01-16T05:14:38;2.10;;;2.00;;
85133;SDS011;75590;42.690;23.356;2024-01-16T05:17:03;2.42;;;2.22;;
85133;SDS011;75590;42.690;23.356;2024-01-16T05:19:29;3.20;;;3.00;;
85133;SDS011;75590;42.690;23.356;2024-01-16T05:21:54;2.70;;;2.08;;
85133;SDS011;75590;42.690;23.356;2024-01-16T05:24:20;2.80;;;2.60;;
85133;SDS011;75590;42.690;23.356;2024-01-16T05:26:45;2.55;;;2.28;;
85133;SDS011;75590;42.690;23.356;2024-01-16T05:29:11;2.30;;;2.10;;
85133;SDS011;75590;42.690;23.356;2024-01-16T05:31:40;1.75;;;1.65;;
85133;SDS011;75590;42.690;23.356;2024-01-16T05:34:07;3.13;;;2.92;;
85133;SDS011;75590;42.690;23.356;2024-01-16T05:36:32;2.70;;;2.60;;
85133;SDS011;75590;42.690;23.356;2024-01-16T05:38:58;2.22;;;2.13;;
85133;SDS011;75590;42.690;23.356;2024-01-16T05:41:23;2.72;;;2.53;;
85133;SDS011;75590;42.690;23.356;2024-01-16T05:43:49;2.10;;;1.90;;
85133;SDS011;75590;42.690;23.356;2024-01-16T05:46:14;4.18;;;2.45;;
85133;SDS011;75590;42.690;23.356;2024-01-16T05:48:40;2.42;;;2.22;;
85133;SDS011;75590;42.690;23.356;2024-01-16T05:51:05;2.35;;;1.92;;
85133;SDS011;75590;42.690;23.356;2024-01-16T05:53:31;2.20;;;2.00;;
85133;SDS011;75590;42.690;23.356;2024-01-16T05:55:58;1.73;;;1.60;;
85133;SDS011;75590;42.690;23.356;2024-01-16T05:58:23;2.00;;;1.90;;
85133;SDS011;75590;42.690;23.356;2024-01-16T06:00:48;2.95;;;2.17;;
85133;SDS011;75590;42.690;23.356;2024-01-16T06:03:14;1.70;;;1.60;;
85133;SDS011;75590;42.690;23.356;2024-01-16T06:05:40;1.67;;;1.58;;
85133;SDS011;75590;42.690;23.356;2024-01-16T06:08:05;2.38;;;2.03;;
85133;SDS011;75590;42.690;23.356;2024-01-16T06:10:31;2.92;;;2.58;;
85133;SDS011;75590;42.690;23.356;2024-01-16T06:12:56;2.28;;;1.85;;
85133;SDS011;75590;42.690;23.356;2024-01-16T06:15:22;2.15;;;1.95;;
85133;SDS011;75590;42.690;23.356;2024-01-16T06:17:48;2.85;;;2.40;;
85133;SDS011;75590;42.690;23.356;2024-01-16T06:20:13;2.40;;;1.88;;
85133;SDS011;75590;42.690;23.356;2024-01-16T06:22:39;3.83;;;3.53;;
85133;SDS011;75590;42.690;23.356;2024-01-16T06:25:05;2.38;;;2.17;;
85133;SDS011;75590;42.690;23.356;2024-01-16T06:27:31;4.30;;;1.60;;
85133;SDS011;75590;42.690;23.356;2024-01-16T06:29:57;2.88;;;2.67;;
85133;SDS011;75590;42.690;23.356;2024-01-16T06:32:22;2.58;;;2.38;;
85133;SDS011;75590;42.690;23.356;2024-01-16T06:34:48;1.35;;;1.13;;
85133;SDS011;75590;42.690;23.356;2024-01-16T06:37:13;2.42;;;2.05;;
85133;SDS011;75590;42.690;23.356;2024-01-16T06:39:39;2.78;;;1.88;;
85133;SDS011;75590;42.690;23.356;2024-01-16T06:42:05;3.03;;;2.42;;
85133;SDS011;75590;42.690;23.356;2024-01-16T06:44:31;2.78;;;2.47;;
85133;SDS011;75590;42.690;23.356;2024-01-16T06:46:56;2.20;;;2.00;;
85133;SDS011;75590;42.690;23.356;2024-01-16T06:49:24;2.90;;;2.70;;
85133;SDS011;75590;42.690;23.356;2024-01-16T06:51:50;2.63;;;2.40;;
85133;SDS011;75590;42.690;23.356;2024-01-16T06:54:15;2.78;;;2.53;;
85133;SDS011;75590;42.690;23.356;2024-01-16T06:56:41;1.98;;;1.80;;
85133;SDS011;75590;42.690;23.356;2024-01-16T06:59:06;2.20;;;2.00;;
85133;SDS011;75590;42.690;23.356;2024-01-16T07:01:33;2.35;;;2.15;;
85133;SDS011;75590;42.690;23.356;2024-01-16T07:03:58;3.85;;;2.85;;
85133;SDS011;75590;42.690;23.356;2024-01-16T07:06:24;2.92;;;2.72;;
85133;SDS011;75590;42.690;23.356;2024-01-16T07:08:49;1.90;;;1.80;;
85133;SDS011;75590;42.690;23.356;2024-01-16T07:11:15;2.50;;;2.22;;
85133;SDS011;75590;42.690;23.356;2024-01-16T07:13:40;2.65;;;2.45;;
85133;SDS011;75590;42.690;23.356;2024-01-16T07:16:10;3.28;;;2.97;;
85133;SDS011;75590;42.690;23.356;2024-01-16T07:18:37;2.75;;;2.55;;
85133;SDS011;75590;42.690;23.356;2024-01-16T07:21:03;2.45;;;2.33;;
85133;SDS011;75590;42.690;23.356;2024-01-16T07:23:30;2.40;;;2.30;;
85133;SDS011;75590;42.690;23.356;2024-01-16T07:25:56;4.32;;;2.08;;
85133;SDS011;75590;42.690;23.356;2024-01-16T07:28:22;1.92;;;1.75;;
85133;SDS011;75590;42.690;23.356;2024-01-16T07:30:47;2.47;;;2.20;;
85133;SDS011;75590;42.690;23.356;2024-01-16T07:33:13;2.97;;;2.08;;
85133;SDS011;75590;42.690;23.356;2024-01-16T07:35:39;2.47;;;1.85;;
85133;SDS011;75590;42.690;23.356;2024-01-16T07:38:06;2.47;;;2.28;;
85133;SDS011;75590;42.690;23.356;2024-01-16T07:40:32;2.50;;;2.08;;
85133;SDS011;75590;42.690;23.356;2024-01-16T07:42:57;2.15;;;2.05;;
85133;SDS011;75590;42.690;23.356;2024-01-16T07:45:23;2.42;;;2.17;;
85133;SDS011;75590;42.690;23.356;2024-01-16T07:47:49;2.40;;;2.20;;
85133;SDS011;75590;42.690;23.356;2024-01-16T07:50:15;1.70;;;1.60;;
85133;SDS011;75590;42.690;23.356;2024-01-16T07:52:40;1.70;;;1.60;;
85133;SDS011;75590;42.690;23.356;2024-01-16T07:55:06;2.50;;;2.30;;
85133;SDS011;75590;42.690;23.356;2024-01-16T07:57:31;2.40;;;2.15;;
85133;SDS011;75590;42.690;23.356;2024-01-16T07:59:56;2.90;;;2.60;;
85133;SDS011;75590;42.690;23.356;2024-01-16T08:02:22;3.05;;;2.55;;
85133;SDS011;75590;42.690;23.356;2024-01-16T08:04:51;2.70;;;2.20;;
85133;SDS011;75590;42.690;23.356;2024-01-16T08:07:17;2.72;;;1.85;;
85133;SDS011;75590;42.690;23.356;2024-01-16T08:09:43;5.47;;;2.47;;
85133;SDS011;75590;42.690;23.356;2024-01-16T08:12:15;6.55;;;3.03;;
85133;SDS011;75590;42.690;23.356;2024-01-16T08:14:40;4.75;;;2.67;;
85133;SDS011;75590;42.690;23.356;2024-01-16T08:17:06;2.47;;;2.28;;
85133;SDS011;75590;42.690;23.356;2024-01-16T08:19:32;3.83;;;1.92;;
85133;SDS011;75590;42.690;23.356;2024-01-16T08:21:57;2.63;;;1.95;;
85133;SDS011;75590;42.690;23.356;2024-01-16T08:24:23;1.27;;;0.90;;
85133;SDS011;75590;42.690;23.356;2024-01-16T08:26:51;2.78;;;2.17;;
85133;SDS011;75590;42.690;23.356;2024-01-16T08:29:16;3.10;;;1.90;;
85133;SDS011;75590;42.690;23.356;2024-01-16T08:31:42;2.03;;;1.92;;
85133;SDS011;75590;42.690;23.356;2024-01-16T08:34:07;2.40;;;2.10;;
85133;SDS011;75590;42.690;23.356;2024-01-16T08:36:33;2.55;;;2.22;;
85133;SDS011;75590;42.690;23.356;2024-01-16T08:38:58;2.78;;;2.58;;
85133;SDS011;75590;42.690;23.356;2024-01-16T08:41:24;3.08;;;2.60;;
85133;SDS011;75590;42.690;23.356;2024-01-16T08:43:50;1.98;;;1.88;;
85133;SDS011;75590;42.690;23.356;2024-01-16T08:46:16;2.45;;;1.95;;
85133;SDS011;75590;42.690;23.356;2024-01-16T08:48:44;2.65;;;2.30;;
85133;SDS011;75590;42.690;23.356;2024-01-16T08:51:10;3.15;;;2.10;;
85133;SDS011;75590;42.690;23.356;2024-01-16T08:53:39;3.28;;;2.03;;
85133;SDS011;75590;42.690;23.356;2024-01-16T08:56:05;2.83;;;2.58;;
85133;SDS011;75590;42.690;23.356;2024-01-16T08:58:32;6.90;;;2.45;;
85133;SDS011;75590;42.690;23.356;2024-01-16T09:01:04;3.03;;;2.58;;
85133;SDS011;75590;42.690;23.356;2024-01-16T09:03:31;2.30;;;2.08;;
85133;SDS011;75590;42.690;23.356;2024-01-16T09:05:57;1.48;;;1.38;;
85133;SDS011;75590;42.690;23.356;2024-01-16T09:08:23;3.25;;;2.65;;
85133;SDS011;75590;42.690;23.356;2024-01-16T09:10:48;3.47;;;2.28;;
85133;SDS011;75590;42.690;23.356;2024-01-16T09:13:14;2.28;;;2.00;;
85133;SDS011;75590;42.690;23.356;2024-01-16T09:15:40;2.30;;;2.10;;
85133;SDS011;75590;42.690;23.356;2024-01-16T09:18:05;5.28;;;2.30;;
85133;SDS011;75590;42.690;23.356;2024-01-16T09:20:31;2.88;;;2.67;;
85133;SDS011;75590;42.690;23.356;2024-01-16T09:22:57;3.22;;;3.00;;
85133;SDS011;75590;42.690;23.356;2024-01-16T09:25:22;3.63;;;2.75;;
85133;SDS011;75590;42.690;23.356;2024-01-16T09:27:52;2.50;;;1.98;;
85133;SDS011;75590;42.690;23.356;2024-01-16T09:30:18;2.20;;;1.85;;
85133;SDS011;75590;42.690;23.356;2024-01-16T09:32:44;3.08;;;2.00;;
85133;SDS011;75590;42.690;23.356;2024-01-16T09:35:10;2.60;;;2.33;;
85133;SDS011;75590;42.690;23.356;2024-01-16T09:37:36;2.00;;;1.63;;
85133;SDS011;75590;42.690;23.356;2024-01-16T09:40:02;2.90;;;2.70;;
85133;SDS011;75590;42.690;23.356;2024-01-16T09:42:30;3.60;;;2.10;;
85133;SDS011;75590;42.690;23.356;2024-01-16T09:44:56;2.50;;;1.90;;
85133;SDS011;75590;42.690;23.356;2024-01-16T09:47:22;2.33;;;1.63;;
85133;SDS011;75590;42.690;23.356;2024-01-16T09:49:49;1.95;;;1.80;;
85133;SDS011;75590;42.690;23.356;2024-01-16T09:52:14;3.92;;;1.85;;
85133;SDS011;75590;42.690;23.356;2024-01-16T09:54:40;4.18;;;2.38;;
85133;SDS011;75590;42.690;23.356;2024-01-16T09:57:06;3.08;;;2.30;;
85133;SDS011;75590;42.690;23.356;2024-01-16T09:59:33;3.15;;;2.58;;
85133;SDS011;75590;42.690;23.356;2024-01-16T10:02:01;4.05;;;3.30;;
85133;SDS011;75590;42.690;23.356;2024-01-16T10:04:31;3.05;;;2.55;;
85133;SDS011;75590;42.690;23.356;2024-01-16T10:06:58;2.20;;;1.92;;
85133;SDS011;75590;42.690;23.356;2024-01-16T10:09:23;5.00;;;1.55;;
85133;SDS011;75590;42.690;23.356;2024-01-16T10:11:50;2.65;;;1.80;;
85133;SDS011;75590;42.690;23.356;2024-01-16T10:14:17;3.90;;;3.30;;
85133;SDS011;75590;42.690;23.356;2024-01-16T10:16:55;2.85;;;2.47;;
85133;SDS011;75590;42.690;23.356;2024-01-16T10:19:27;5.88;;;5.47;;
85133;SDS011;75590;42.690;23.356;2024-01-16T10:22:00;2.33;;;2.13;;
85133;SDS011;75590;42.690;23.356;2024-01-16T10:24:26;2.78;;;2.58;;
85133;SDS011;75590;42.690;23.356;2024-01-16T10:26:58;2.40;;;2.20;;
85133;SDS011;75590;42.690;23.356;2024-01-16T10:29:26;3.83;;;2.30;;
85133;SDS011;75590;42.690;23.356;2024-01-16T10:31:52;1.55;;;1.40;;
85133;SDS011;75590;42.690;23.356;2024-01-16T10:34:18;7.00;;;2.33;;
85133;SDS011;75590;42.690;23.356;2024-01-16T10:36:49;2.83;;;2.63;;
85133;SDS011;75590;42.690;23.356;2024-01-16T10:39:16;2.95;;;1.80;;
85133;SDS011;75590;42.690;23.356;2024-01-16T10:41:41;3.33;;;2.65;;
85133;SDS011;75590;42.690;23.356;2024-01-16T10:44:07;2.80;;;2.17;;
85133;SDS011;75590;42.690;23.356;2024-01-16T10:46:33;1.88;;;1.75;;
85133;SDS011;75590;42.690;23.356;2024-01-16T10:49:00;3.42;;;2.08;;
85133;SDS011;75590;42.690;23.356;2024-01-16T10:51:28;3.83;;;1.70;;
85133;SDS011;75590;42.690;23.356;2024-01-16T10:54:00;3.60;;;3.30;;
85133;SDS011;75590;42.690;23.356;2024-01-16T10:56:28;3.42;;;1.73;;
85133;SDS011;75590;42.690;23.356;2024-01-16T10:59:39;2.53;;;2.33;;
85133;SDS011;75590;42.690;23.356;2024-01-16T11:01:49;3.70;;;2.67;;
85133;SDS011;75590;42.690;23.356;2024-01-16T11:04:17;2.63;;;2.33;;
85133;SDS011;75590;42.690;23.356;2024-01-16T11:06:44;2.40;;;2.20;;
85133;SDS011;75590;42.690;23.356;2024-01-16T11:09:10;2.40;;;2.17;;
85133;SDS011;75590;42.690;23.356;2024-01-16T11:11:40;2.75;;;1.90;;
85133;SDS011;75590;42.690;23.356;2024-01-16T11:14:06;3.95;;;2.90;;
85133;SDS011;75590;42.690;23.356;2024-01-16T11:16:32;5.70;;;2.35;;
85133;SDS011;75590;42.690;23.356;2024-01-16T11:18:58;4.00;;;2.38;;
85133;SDS011;75590;42.690;23.356;2024-01-16T11:21:23;2.78;;;2.40;;
85133;SDS011;75590;42.690;23.356;2024-01-16T11:23:50;3.15;;;2.60;;
85133;SDS011;75590;42.690;23.356;2024-01-16T11:26:29;3.67;;;2.42;;
85133;SDS011;75590;42.690;23.356;2024-01-16T11:28:59;3.33;;;3.03;;
85133;SDS011;75590;42.690;23.356;2024-01-16T11:31:32;2.47;;;2.28;;
85133;SDS011;75590;42.690;23.356;2024-01-16T11:33:58;3.55;;;3.30;;
85133;SDS011;75590;42.690;23.356;2024-01-16T11:39:22;5.32;;;2.83;;
85133;SDS011;75590;42.690;23.356;2024-01-16T11:47:07;2.67;;;2.13;;
85133;SDS011;75590;42.690;23.356;2024-01-16T11:49:34;3.85;;;2.35;;
85133;SDS011;75590;42.690;23.356;2024-01-16T11:52:01;3.80;;;3.10;;
85133;SDS011;75590;42.690;23.356;2024-01-16T11:54:27;3.40;;;2.72;;
85133;SDS011;75590;42.690;23.356;2024-01-16T11:59:26;3.40;;;2.78;;
85133;SDS011;75590;42.690;23.356;2024-01-16T12:02:20;5.28;;;3.20;;
85133;SDS011;75590;42.690;23.356;2024-01-16T12:04:53;3.47;;;2.95;;
85133;SDS011;75590;42.690;23.356;2024-01-16T12:07:23;4.90;;;3.28;;
85133;SDS011;75590;42.690;23.356;2024-01-16T12:09:49;3.92;;;3.28;;
85133;SDS011;75590;42.690;23.356;2024-01-16T12:12:15;3.03;;;2.55;;
85133;SDS011;75590;42.690;23.356;2024-01-16T12:14:40;4.13;;;1.75;;
85133;SDS011;75590;42.690;23.356;2024-01-16T12:17:12;3.10;;;2.55;;
85133;SDS011;75590;42.690;23.356;2024-01-16T12:19:38;8.10;;;3.67;;
85133;SDS011;75590;42.690;23.356;2024-01-16T12:22:10;4.00;;;2.88;;
85133;SDS011;75590;42.690;23.356;2024-01-16T12:24:38;2.67;;;2.42;;
85133;SDS011;75590;42.690;23.356;2024-01-16T12:27:04;3.08;;;2.22;;
85133;SDS011;75590;42.690;23.356;2024-01-16T12:29:30;3.22;;;2.10;;
85133;SDS011;75590;42.690;23.356;2024-01-16T12:34:52;3.05;;;1.55;;
85133;SDS011;75590;42.690;23.356;2024-01-16T12:37:18;2.78;;;2.20;;
85133;SDS011;75590;42.690;23.356;2024-01-16T12:39:45;3.60;;;1.98;;
85133;SDS011;75590;42.690;23.356;2024-01-16T12:42:10;3.00;;;2.45;;
85133;SDS011;75590;42.690;23.356;2024-01-16T12:44:37;2.75;;;2.35;;
85133;SDS011;75590;42.690;23.356;2024-01-16T12:47:03;3.25;;;2.53;;
85133;SDS011;75590;42.690;23.356;2024-01-16T12:49:28;4.28;;;2.45;;
85133;SDS011;75590;42.690;23.356;2024-01-16T12:54:43;2.72;;;2.15;;
85133;SDS011;75590;42.690;23.356;2024-01-16T12:57:10;5.20;;;1.73;;
85133;SDS011;75590;42.690;23.356;2024-01-16T12:59:39;5.32;;;2.63;;
85133;SDS011;75590;42.690;23.356;2024-01-16T13:02:05;1.80;;;1.60;;
85133;SDS011;75590;42.690;23.356;2024-01-16T13:04:31;3.22;;;1.65;;
85133;SDS011;75590;42.690;23.356;2024-01-16T13:07:04;3.63;;;2.42;;
85133;SDS011;75590;42.690;23.356;2024-01-16T13:09:30;1.42;;;1.33;;
85133;SDS011;75590;42.690;23.356;2024-01-16T13:11:57;4.10;;;2.40;;
85133;SDS011;75590;42.690;23.356;2024-01-16T13:14:24;3.95;;;2.65;;
85133;SDS011;75590;42.690;23.356;2024-01-16T13:16:50;2.38;;;2.17;;
85133;SDS011;75590;42.690;23.356;2024-01-16T13:19:19;5.50;;;2.03;;
85133;SDS011;75590;42.690;23.356;2024-01-16T13:21:45;4.00;;;2.10;;
85133;SDS011;75590;42.690;23.356;2024-01-16T13:24:11;3.30;;;2.45;;
85133;SDS011;75590;42.690;23.356;2024-01-16T13:26:38;2.85;;;2.22;;
85133;SDS011;75590;42.690;23.356;2024-01-16T13:29:05;3.47;;;2.60;;
85133;SDS011;75590;42.690;23.356;2024-01-16T13:31:31;3.08;;;2.38;;
85133;SDS011;75590;42.690;23.356;2024-01-16T13:33:57;3.33;;;2.53;;
85133;SDS011;75590;42.690;23.356;2024-01-16T13:36:23;4.88;;;2.50;;
85133;SDS011;75590;42.690;23.356;2024-01-16T13:38:49;2.97;;;2.60;;
85133;SDS011;75590;42.690;23.356;2024-01-16T13:41:16;6.15;;;3.03;;
85133;SDS011;75590;42.690;23.356;2024-01-16T13:43:41;3.15;;;2.83;;
85133;SDS011;75590;42.690;23.356;2024-01-16T13:46:07;4.88;;;2.55;;
85133;SDS011;75590;42.690;23.356;2024-01-16T13:48:34;2.75;;;1.98;;
85133;SDS011;75590;42.690;23.356;2024-01-16T13:50:59;3.60;;;3.30;;
85133;SDS011;75590;42.690;23.356;2024-01-16T13:53:25;3.38;;;2.45;;
85133;SDS011;75590;42.690;23.356;2024-01-16T13:55:50;4.30;;;2.50;;
85133;SDS011;75590;42.690;23.356;2024-01-16T13:58:16;3.53;;;3.22;;
85133;SDS011;75590;42.690;23.356;2024-01-16T14:00:43;3.22;;;2.92;;
85133;SDS011;75590;42.690;23.356;2024-01-16T14:03:09;2.63;;;2.38;;
85133;SDS011;75590;42.690;23.356;2024-01-16T14:05:34;3.30;;;2.78;;
85133;SDS011;75590;42.690;23.356;2024-01-16T14:08:01;3.63;;;3.22;;
85133;SDS011;75590;42.690;23.356;2024-01-16T14:10:26;5.47;;;3.63;;
85133;SDS011;75590;42.690;23.356;2024-01-16T14:12:52;3.60;;;3.03;;
85133;SDS011;75590;42.690;23.356;2024-01-16T14:15:18;4.22;;;2.58;;
85133;SDS011;75590;42.690;23.356;2024-01-16T14:17:47;2.88;;;2.45;;
85133;SDS011;75590;42.690;23.356;2024-01-16T14:20:15;3.05;;;1.98;;
85133;SDS011;75590;42.690;23.356;2024-01-16T14:22:41;5.85;;;2.80;;
85133;SDS011;75590;42.690;23.356;2024-01-16T14:25:07;4.90;;;3.00;;
85133;SDS011;75590;42.690;23.356;2024-01-16T14:27:39;2.67;;;2.08;;
85133;SDS011;75590;42.690;23.356;2024-01-16T14:30:10;3.65;;;3.35;;
85133;SDS011;75590;42.690;23.356;2024-01-16T14:32:40;4.53;;;3.50;;
85133;SDS011;75590;42.690;23.356;2024-01-16T14:35:06;3.80;;;2.60;;
85133;SDS011;75590;42.690;23.356;2024-01-16T14:37:33;5.65;;;2.40;;
85133;SDS011;75590;42.690;23.356;2024-01-16T14:39:59;4.68;;;2.97;;
85133;SDS011;75590;42.690;23.356;2024-01-16T14:42:28;3.28;;;2.80;;
85133;SDS011;75590;42.690;23.356;2024-01-16T14:44:54;4.25;;;3.13;;